Stations météo

Publicité
Uccle, Belgique (6447): Température de l'air & dewpoint: 14.06.2018 09:00:00 - 20.06.2018 09:00:00 (CEST)Uccle, Belgique (6447): Vitesse du vent & gusts: 14.06.2018 09:00:00 - 20.06.2018 09:00:00 (CEST)Uccle, Belgique (6447): Direction du vent: 14.06.2018 09:00:00 - 20.06.2018 09:00:00 (CEST)Uccle, Belgique (6447): reduced air pressure: 14.06.2018 09:00:00 - 20.06.2018 09:00:00 (CEST)Uccle, Belgique (6447): Ensoleillement: 14.06.2018 09:00:00 - 20.06.2018 09:00:00 (CEST)Uccle, Belgique (6447): Quantités de précipitations: 14.06.2018 09:00:00 - 20.06.2018 09:00:00 (CEST)
Date & Time tt [°C] td [°C] ff [km/h] ff [knt] fx [km/h] fx [knt] dd ppp [hPa] sd [min] rr [mm]
20.06.2018 09:00:00 17,4 14,7 13 7 25 14 SSW 1022,3 0 0,0
20.06.2018 08:00:00 17,0 14,5 14 8 26 14 SW 1022,3 0 0,0
20.06.2018 07:00:00 16,9 14,6 10 5 26 14 SSW 1022,5 0 0,0
20.06.2018 06:00:00 16,8 14,6 11 6 24 13 SW 1022,4 0 0,0
20.06.2018 05:00:00 16,7 14,5 8 4 14 8 SW 1022,8 0 0,0
20.06.2018 04:00:00 17,0 14,5 7 4 16 9 SW 1023,1 0 0,0
20.06.2018 03:00:00 17,3 14,5 6 4 13 7 SW 1023,4 0 0,0
20.06.2018 02:00:00 17,5 14,6 7 4 13 7 SW 1023,6 0 0,0
20.06.2018 01:00:00 17,7 14,8 8 5 16 9 WSW 1023,9 0 0,0
20.06.2018 00:00:00 18,1 15,7 6 4 14 7 WSW 1024,1 0 0,0
19.06.2018 23:00:00 18,3 15,7 6 3 21 11 WSW 1024,1 0 0,0
19.06.2018 22:00:00 18,7 15,7 7 4 18 10 WSW 1023,9 0 0,0
19.06.2018 21:00:00 19,1 15,6 12 6 24 13 WSW 1023,8 0 0,0
19.06.2018 20:00:00 19,7 15,6 7 4 19 11 WSW 1023,7 0 0,0
19.06.2018 19:00:00 20,2 15,6 8 4 21 11 SW 1023,9 0 0,0
19.06.2018 18:00:00 20,1 15,7 7 4 16 9 WSW 1024,1 0 0,0
19.06.2018 17:00:00 19,9 15,7 9 5 22 12 SW 1024,3 0 0,0
19.06.2018 16:00:00 19,9 15,6 8 4 18 10 WSW 1024,4 0 0,0
19.06.2018 15:00:00 19,4 15,7 7 4 18 10 WSW 1024,5 0 0,0
19.06.2018 14:00:00 18,9 15,8 7 4 20 11 WSW 1024,6 0 0,0
19.06.2018 13:00:00 18,8 15,5 12 6 23 12 WSW 1024,5 0 0,0
19.06.2018 12:00:00 18,6 15,7 8 5 21 12 WSW 1024,2 0 0,0
19.06.2018 11:00:00 17,6 15,4 9 5 24 13 W 1024,2 0 0,0
19.06.2018 10:00:00 17,3 15,3 10 5 24 13 WSW 1024,0 0 0,0
19.06.2018 09:00:00 16,8 15,0 11 6 26 14 SW 1023,6 0 0,0
19.06.2018 08:00:00 16,4 14,9 11 6 25 13 WSW 1023,3 0 0,0
19.06.2018 07:00:00 15,9 14,5 10 6 22 12 SW 1023,0 0 0,0
19.06.2018 06:00:00 15,5 14,1 11 6 22 12 SW 1022,9 0 0,0
19.06.2018 05:00:00 15,2 13,9 10 6 22 12 SW 1022,5 0 0,0
19.06.2018 04:00:00 14,6 13,2 12 7 24 13 SW 1022,2 0 0,0
19.06.2018 03:00:00 14,0 12,3 13 7 30 16 SW 1022,1 0 0,0
19.06.2018 02:00:00 14,2 11,4 14 8 26 14 SW 1022,0 0 0,0
19.06.2018 01:00:00 14,8 10,9 10 6 25 13 WSW 1022,1 0 0,0
19.06.2018 00:00:00 15,7 11,6 11 6 27 15 WSW 1022,2 0 0,0
18.06.2018 23:00:00 16,3 11,7 11 6 21 11 WSW 1021,9 0 0,0
18.06.2018 22:00:00 17,3 11,5 11 6 27 15 WSW 1021,2 0 0,0
18.06.2018 21:00:00 18,2 11,4 15 8 38 21 WSW 1021,0 33 0,0
18.06.2018 20:00:00 19,3 12,5 18 10 40 21 WSW 1020,8 49 0,0
18.06.2018 19:00:00 19,6 13,0 19 10 33 18 WSW 1020,4 15 0,0
18.06.2018 18:00:00 19,1 12,9 14 8 36 19 SW 1020,8 0 0,0
18.06.2018 17:00:00 19,3 13,0 14 8 40 21 WSW 1021,0 2 0,0
18.06.2018 16:00:00 19,3 13,7 19 10 38 21 WSW 1021,1 0 0,0
18.06.2018 15:00:00 18,8 15,0 20 11 36 19 SW 1020,6 1 0,0
18.06.2018 14:00:00 17,8 15,4 14 8 35 19 SW 1020,9 0 0,0
18.06.2018 13:00:00 17,7 15,0 11 6 34 18 SW 1020,8 1 0,0
18.06.2018 12:00:00 17,9 15,1 17 9 33 18 SSW 1020,5 0 0,0
18.06.2018 11:00:00 16,9 15,0 16 9 31 17 SSW 1020,3 0 0,0
18.06.2018 10:00:00 17,3 14,4 13 7 31 17 SW 1020,1 0 0,0
18.06.2018 09:00:00 16,8 13,8 14 7 30 16 SW 1019,7 1 0,0
18.06.2018 08:00:00 15,6 13,7 11 6 27 14 SSW 1019,6 0 0,0
18.06.2018 07:00:00 15,2 12,5 11 6 25 14 SW 1019,6 0 0,0
18.06.2018 06:00:00 15,8 11,1 13 7 24 13 SW 1019,4 0 0,0
18.06.2018 05:00:00 15,3 10,8 9 5 16 9 S 1019,1 0 0,0
18.06.2018 04:00:00 15,5 10,4 9 5 16 8 S 1019,2 0 0,0
18.06.2018 03:00:00 15,6 10,4 7 4 12 7 SSW 1019,5 0 0,0
18.06.2018 02:00:00 15,7 10,3 4 2 11 6 SW 1019,7 0 0,0
18.06.2018 01:00:00 15,8 9,9 5 3 10 5 SSW 1019,8 0 0,0
18.06.2018 00:00:00 16,0 9,6 6 4 14 8 SW 1020,0 0 0,0
17.06.2018 23:00:00 16,1 9,2 8 4 16 9 SSW 1019,9 0 0,0
17.06.2018 22:00:00 16,5 8,8 7 4 22 12 SW 1019,6 0 0,0
17.06.2018 21:00:00 16,7 8,2 12 7 31 17 WSW 1019,4 0 0,0
17.06.2018 20:00:00 17,3 7,4 18 10 36 20 WSW 1019,2 0 0,0
17.06.2018 19:00:00 18,3 7,9 16 9 32 18 WSW 1019,0 6 0,0
17.06.2018 18:00:00 18,5 8,8 19 10 35 19 WSW 1018,8 7 0,0
17.06.2018 17:00:00 18,4 9,0 11 6 - - SW 1018,6 9 0,0
17.06.2018 16:00:00 17,5 8,9 13 7 29 16 WSW 1018,8 2 0,0
17.06.2018 15:00:00 16,4 9,4 13 7 26 14 SW 1018,8 0 0,0
17.06.2018 14:00:00 16,0 9,0 14 8 33 18 WSW 1018,6 0 0,0
17.06.2018 13:00:00 15,9 8,3 15 8 29 16 WSW 1018,4 0 0,0
17.06.2018 12:00:00 15,5 8,7 11 6 31 17 SW 1018,2 0 0,0
17.06.2018 11:00:00 15,8 9,2 14 8 34 18 WSW 1018,3 0 0,0
17.06.2018 10:00:00 14,9 9,1 14 7 31 17 WSW 1018,0 3 0,0
17.06.2018 09:00:00 14,5 9,7 12 6 27 15 SW 1017,5 3 0,0
17.06.2018 08:00:00 14,0 9,7 14 8 30 16 SW 1016,9 8 0,0
17.06.2018 07:00:00 13,6 10,0 13 7 31 17 SW 1016,8 6 0,0
17.06.2018 06:00:00 13,8 9,9 12 6 30 16 WSW 1016,7 0 0,0
17.06.2018 05:00:00 14,6 9,9 11 6 26 14 WSW 1016,7 0 0,0
17.06.2018 04:00:00 14,8 9,5 11 6 21 11 SW 1016,3 0 0,0
17.06.2018 03:00:00 15,1 9,2 9 5 17 9 SW 1016,4 0 0,0
17.06.2018 02:00:00 15,5 8,8 11 6 19 11 SW 1016,1 0 0,0
17.06.2018 01:00:00 15,0 8,8 7 4 15 8 SW 1016,3 0 0,0
17.06.2018 00:00:00 13,7 7,8 6 3 11 6 SW 1016,4 0 0,0
16.06.2018 23:00:00 15,6 7,8 6 3 20 11 WSW 1016,3 0 0,0
16.06.2018 22:00:00 17,2 7,6 12 7 25 13 WSW 1015,9 0 0,0
16.06.2018 21:00:00 18,2 8,1 14 7 31 17 W 1015,6 31 0,0
16.06.2018 20:00:00 19,4 7,8 11 6 33 18 WSW 1015,3 26 0,0
16.06.2018 19:00:00 19,9 8,9 16 8 32 17 W 1015,3 5 0,0
16.06.2018 18:00:00 20,4 9,3 16 9 33 18 WSW 1014,9 16 0,0
16.06.2018 17:00:00 20,4 10,5 9 5 30 16 WSW 1014,8 7 0,0
16.06.2018 16:00:00 20,3 10,2 15 8 28 15 WSW 1014,9 3 0,0
16.06.2018 15:00:00 21,3 10,0 17 9 29 16 SW 1014,6 37 0,0
16.06.2018 14:00:00 20,7 8,8 11 6 24 13 SW 1014,9 47 0,0
16.06.2018 13:00:00 20,1 8,0 9 5 22 12 SW 1015,4 49 0,0
16.06.2018 12:00:00 18,7 8,7 10 5 22 12 SW 1015,9 36 0,0
16.06.2018 11:00:00 17,2 8,6 12 7 22 12 W 1016,1 15 0,0
16.06.2018 10:00:00 17,2 8,5 12 6 18 10 SSW 1015,4 56 0,0
16.06.2018 09:00:00 14,5 9,4 8 4 14 7 S 1015,6 22 0,0
16.06.2018 08:00:00 13,5 9,5 7 4 11 6 SW 1015,9 0 0,0
16.06.2018 07:00:00 12,8 10,0 6 3 13 7 SW 1015,9 0 0,0
16.06.2018 06:00:00 12,1 9,8 4 2 10 5 SW 1015,8 0 0,0
16.06.2018 05:00:00 12,6 10,5 5 3 9 5 SW 1015,8 0 0,0
16.06.2018 04:00:00 13,4 11,2 5 3 11 6 SW 1016,0 0 0,0
16.06.2018 03:00:00 13,8 10,9 5 3 9 5 WSW 1016,0 0 0,0
16.06.2018 02:00:00 14,5 10,7 7 4 9 5 W 1016,3 0 0,0
16.06.2018 01:00:00 15,4 10,6 5 3 9 5 WNW 1016,0 0 0,0
16.06.2018 00:00:00 17,0 10,7 7 4 15 8 NNW 1016,0 0 0,0
15.06.2018 23:00:00 17,7 11,6 5 3 13 7 NW 1015,9 0 0,0
15.06.2018 22:00:00 19,1 12,1 10 6 22 12 NNW 1015,7 0 0,0
15.06.2018 21:00:00 21,6 8,3 7 4 21 11 WSW 1015,4 31 0,0
15.06.2018 20:00:00 22,9 8,4 7 4 21 11 WSW 1015,3 60 0,0
15.06.2018 19:00:00 23,6 8,7 9 5 21 12 WSW 1015,4 46 0,0
15.06.2018 18:00:00 23,3 7,8 10 5 22 12 WSW 1015,4 45 0,0
15.06.2018 17:00:00 22,0 9,1 9 5 21 12 SSW 1015,7 17 0,0
15.06.2018 16:00:00 22,9 9,9 10 6 22 12 WSW 1015,9 59 0,0
15.06.2018 15:00:00 22,3 10,5 10 5 21 11 S 1016,1 59 0,0
15.06.2018 14:00:00 21,8 10,4 7 4 16 8 SSE 1016,2 60 0,0
15.06.2018 13:00:00 20,2 12,4 6 4 14 8 SW 1016,4 31 0,0
15.06.2018 12:00:00 20,3 13,6 8 4 15 8 SSE 1016,6 58 0,0
15.06.2018 11:00:00 18,4 13,4 6 3 13 7 SSW 1016,6 60 0,0
15.06.2018 10:00:00 16,5 12,5 4 2 11 6 SSW 1016,7 - -
15.06.2018 09:00:00 14,7 12,4 4 2 14 8 SSW 1016,5 - -
15.06.2018 08:00:00 12,5 11,9 7 4 13 7 SSW 1016,3 56 0,0
15.06.2018 07:00:00 11,5 10,9 4 2 10 6 WSW 1016,2 44 0,0
15.06.2018 06:00:00 11,0 10,4 6 3 13 7 SW 1016,1 0 0,0
15.06.2018 05:00:00 11,0 10,4 6 3 9 5 SSW 1016,0 0 0,0
15.06.2018 04:00:00 11,8 11,1 7 4 11 6 SW 1015,8 0 0,0
15.06.2018 03:00:00 12,5 11,8 6 3 15 8 SW 1016,0 0 0,0
15.06.2018 02:00:00 13,4 12,5 7 4 11 6 SSW 1016,2 0 0,0
15.06.2018 01:00:00 14,0 12,9 5 3 13 7 SW 1016,2 0 0,0
15.06.2018 00:00:00 14,7 13,4 8 4 14 8 SSW 1016,1 0 0,0
14.06.2018 23:00:00 15,6 13,9 8 4 13 7 SSW 1015,7 0 0,0
14.06.2018 22:00:00 16,2 14,3 6 4 23 13 WSW 1015,5 0 0,1
14.06.2018 21:00:00 17,0 13,9 10 6 23 12 WSW 1015,0 0 0,0
14.06.2018 20:00:00 16,4 13,8 11 6 27 15 SW 1014,6 0 0,0
14.06.2018 19:00:00 17,3 12,4 12 7 34 18 SSW 1014,3 0 0,0
14.06.2018 18:00:00 17,9 12,0 16 9 36 19 SSW 1014,0 0 0,0
14.06.2018 17:00:00 17,9 11,7 18 10 35 19 SSW 1013,9 0 0,0
14.06.2018 16:00:00 17,6 12,1 18 10 32 17 SSW 1014,2 0 0,0
14.06.2018 15:00:00 16,8 12,1 16 9 40 22 S 1014,2 0 0,3
14.06.2018 14:00:00 18,6 10,4 22 12 40 22 S 1014,2 0 0,0
14.06.2018 13:00:00 18,9 9,9 23 12 40 22 SSW 1014,7 0 0,0
14.06.2018 12:00:00 18,4 9,5 23 12 39 21 SSW 1014,7 3 0,0
14.06.2018 11:00:00 17,9 9,7 17 9 44 24 SSW 1014,7 18 0,0
14.06.2018 10:00:00 17,5 9,0 17 9 38 21 SSW 1014,8 58 0,0
14.06.2018 09:00:00 16,0 10,9 15 8 31 17 SSW 1014,9 60 0,0

tt = Température de l'air
td = dewpoint
ff = Vitesse du vent
fx = gusts
dd = Direction du vent
ppp = reduced air pressure
sd = Ensoleillement
rr = Quantités de précipitations

stations d'obs. à proximité